Weather at Entebbe International Airport

Public forecast

Using degrees Celsius for public forecast. Weather courtesy of forecast.io.

Current aviation weather report (METAR) for Entebbe International Airport

Retrieved 2022/07/06 03:00 UTC (18 minutes ago):

HUEN 060300Z 36004KT CAVOK 18/17 Q10184 A3007 8869 2619 NOSIG

Aviation forecast (TAF) for Entebbe International Airport

Retrieved 2022-07-06 00:00 UTC (3 hours ago):

TAF HUEN 052300Z 0600/0706 18010KT 9999 FEW024 FEW026CB BECMG 0600/0606 32005KT FEW020 FEW022CB TEMPO 0610/0612 TS SCT021 FEW023CB BKN110 FM 062300 33006KT FEW021 FEW023CB